Погода Французская Гребляна 2 недели

Минская область, Белоруссия

23 июля-05 августа
  • 23июля
    Сегодня
    +15°
    +27°
    Ясно и безоблачно
    ВремяПогодаТемператураВлажностьДавлениеВетер, м/сВероятность осадков
    00:00Ясно и безоблачно+19°C87 %746 мм0.2 м/с2 %
    03:00Практически безоблачно+16°C97 %746 мм0.0 м/с2 %
    06:00Ясно и безоблачно+15°C95 %747 мм0.4 м/с2 %
    09:00Ясно и безоблачно+21°C83 %747 мм1.5 м/с2 %
    12:00Ясно и безоблачно+25°C64 %747 мм2.1 м/с2 %
    15:00Ясно и безоблачно+27°C57 %747 мм2.3 м/с8 %
    18:00Ясно и безоблачно+26°C55 %746 мм1.8 м/с10 %
    21:00Ясно и безоблачно+23°C74 %747 мм0.8 м/с3 %
  • 24июля
    Среда
    +15°
    +27°
    Ясно и безоблачно
    ВремяПогодаТемператураВлажностьДавлениеВетер, м/сВероятность осадков
    00:00Ясно и безоблачно+19°C82 %747 мм0.5 м/с2 %
    03:00Ясно и безоблачно+17°C79 %746 мм0.3 м/с2 %
    06:00Небольшая облачность+15°C82 %746 мм0.3 м/с2 %
    09:00Облачно с прояснениями+21°C69 %747 мм1.6 м/с2 %
    12:00Облачно с прояснениями+26°C50 %746 мм2.6 м/с3 %
    15:00Ясно и безоблачно+27°C44 %745 мм2.3 м/с16 %
    18:00Ясно и безоблачно+26°C40 %745 мм1.8 м/с14 %
    21:00Ясно и безоблачно+23°C68 %745 мм1.3 м/с2 %
  • 25июля
    Четверг
    +15°
    +27°
    Практически безоблачно
    ВремяПогодаТемператураВлажностьДавлениеВетер, м/сВероятность осадков
    00:00Ясно и безоблачно+19°C72 %745 мм1.1 м/с2 %
    03:00Ясно и безоблачно+17°C67 %744 мм0.7 м/с2 %
    06:00Практически безоблачно+15°C71 %744 мм0.7 м/с2 %
    09:00Небольшая облачность+20°C62 %744 мм1.8 м/с2 %
    12:00Облачно с прояснениями+25°C43 %744 мм2.3 м/с2 %
    15:00Практически безоблачно+26°C38 %744 мм2.2 м/с5 %
    18:00Пасмурно, сплошная облачность+26°C40 %743 мм2.2 м/с6 %
    21:00Практически безоблачно+23°C51 %744 мм0.9 м/с3 %
  • 26июля
    Пятница
    +16°
    +27°
    Небольшая облачность
    ВремяПогодаТемператураВлажностьДавлениеВетер, м/сВероятность осадков
    00:00Облачно с прояснениями+19°C60 %744 мм0.7 м/с2 %
    03:00Практически безоблачно+16°C71 %744 мм0.3 м/с3 %
    06:00Ясно и безоблачно+16°C75 %745 мм0.5 м/с3 %
    09:00Ясно и безоблачно+21°C63 %746 мм1.0 м/с4 %
    12:00Практически безоблачно+26°C42 %746 мм1.8 м/с6 %
    15:00Небольшая облачность+26°C38 %746 мм1.5 м/с11 %
    18:00Небольшая облачность+23°C35 %747 мм1.3 м/с20 %
    21:00Практически безоблачно+23°C50 %747 мм0.4 м/с16 %
  • 27июля
    Суббота
    +16°
    +27°
    Облачно с прояснениями
    ВремяПогодаТемператураВлажностьДавлениеВетер, м/сВероятность осадков
    00:00Ясно и безоблачно+18°C64 %748 мм0.5 м/с6 %
    03:00Ясно и безоблачно+18°C80 %749 мм0.0 м/с5 %
    06:00Ясно и безоблачно+17°C89 %749 мм0.1 м/с3 %
    09:00Ясно и безоблачно+22°C67 %750 мм1.4 м/с2 %
    12:00Облачно с прояснениями+27°C40 %750 мм2.5 м/с10 %
    15:00Облачно с прояснениями+26°C37 %750 мм2.2 м/с21 %
    18:00Практически безоблачно+26°C38 %750 мм2.0 м/с38 %
    21:00Небольшая облачность+24°C64 %750 мм0.6 м/с7 %
Мы используем cookies
Соглашаюсь